Time;durP1;ratioP1;P1;durP2;ratioP2;P2;SDS_P1;SDS_P2;PMS_P1;PMS_P2;Temp;Humidity;BMP_temperature;BMP_pressure;BME280_temperature;BME280_humidity;BME280_pressure;Samples;Min_cycle;Max_cycle;Signal;HPM_P1;HPM_P2
2022/03/27 00:02:05;;;;;;;22.67;9.32;;;;;;;2.26;64.76;98509.56;5025163;28;20186;-65
2022/03/27 00:04:32;;;;;;;21.48;9.73;;;;;;;2.34;64.94;98504.19;5025248;28;20167;-65
2022/03/27 00:06:59;;;;;;;19.95;8.63;;;;;;;2.29;64.66;98509.19;5023689;28;20648;-65
2022/03/27 00:09:25;;;;;;;20.05;7.78;;;;;;;2.25;64.69;98501.72;5024000;28;20037;-66
2022/03/27 00:11:52;;;;;;;21.13;8.70;;;;;;;2.21;64.84;98504.72;5016807;28;20727;-65
2022/03/27 00:14:19;;;;;;;23.40;8.10;;;;;;;2.26;64.71;98498.88;5024838;28;20045;-65
2022/03/27 00:16:45;;;;;;;18.95;7.93;;;;;;;2.30;64.40;98504.69;5025104;28;20029;-65
2022/03/27 00:19:12;;;;;;;22.30;8.18;;;;;;;2.27;64.66;98507.69;5023898;28;20647;-66
2022/03/27 00:21:41;;;;;;;19.50;8.68;;;;;;;2.19;65.59;98509.41;5022160;28;20049;-66
2022/03/27 00:24:07;;;;;;;18.02;8.32;;;;;;;2.12;64.96;98508.41;5024319;28;20132;-65
2022/03/27 00:26:34;;;;;;;20.45;10.00;;;;;;;2.00;65.68;98497.25;5024895;28;20622;-65
2022/03/27 00:29:01;;;;;;;24.70;9.35;;;;;;;1.92;66.02;98494.56;5022496;28;20537;-65
2022/03/27 00:31:35;;;;;;;25.30;10.07;;;;;;;1.81;66.73;98498.44;5027633;28;20140;-66
2022/03/27 00:34:05;;;;;;;22.95;10.60;;;;;;;1.81;66.44;98490.41;5024886;28;20505;-65
2022/03/27 00:36:32;;;;;;;17.15;8.55;;;;;;;1.81;66.66;98493.91;5023336;28;20104;-65
2022/03/27 00:38:58;;;;;;;22.23;7.93;;;;;;;1.86;66.16;98501.41;5024986;28;20054;-65
2022/03/27 00:41:25;;;;;;;17.45;7.68;;;;;;;1.83;66.29;98492.91;5023473;28;20048;-65
2022/03/27 00:43:52;;;;;;;18.27;7.93;;;;;;;1.68;66.97;98491.75;5025327;28;20060;-65
2022/03/27 00:46:18;;;;;;;23.08;8.27;;;;;;;1.73;66.79;98490.41;5024647;28;20103;-65
2022/03/27 00:48:45;;;;;;;20.08;8.27;;;;;;;1.71;66.56;98493.25;5024170;28;20041;-65
2022/03/27 00:51:12;;;;;;;25.67;8.70;;;;;;;1.80;66.29;98492.25;5025342;28;20049;-65
2022/03/27 00:53:38;;;;;;;23.67;9.20;;;;;;;1.61;66.92;98487.22;5023424;28;20038;-65
2022/03/27 00:56:05;;;;;;;22.85;8.90;;;;;;;1.63;67.14;98493.25;5024140;28;20041;-65
2022/03/27 00:58:32;;;;;;;23.48;7.43;;;;;;;1.67;66.80;98495.41;5024041;28;20408;-65
2022/03/27 01:01:01;;;;;;;22.48;8.65;;;;;;;1.56;67.10;98490.41;5024218;28;20045;-65
2022/03/27 01:03:28;;;;;;;17.85;7.78;;;;;;;1.48;67.28;98491.25;5025350;28;20043;-65
2022/03/27 01:05:58;;;;;;;18.50;8.40;;;;;;;1.48;67.27;98487.72;5026296;28;20616;-65
2022/03/27 01:11:18;;;;;;;20.67;8.57;;;;;;;1.47;67.91;98486.06;5026067;28;20045;-65
2022/03/27 01:13:56;;;;;;;25.00;8.35;;;;;;;1.37;68.01;98483.56;5026765;28;20042;-65
2022/03/27 01:16:32;;;;;;;22.13;9.18;;;;;;;1.36;68.17;98482.69;5026060;28;20467;-65
2022/03/27 01:19:00;;;;;;;19.80;7.75;;;;;;;1.33;68.03;98479.53;5027946;28;20386;-65
2022/03/27 01:21:27;;;;;;;20.25;8.63;;;;;;;1.39;68.30;98484.19;5026904;28;20566;-66
2022/03/27 01:23:56;;;;;;;21.48;7.63;;;;;;;1.47;67.82;98480.72;5027704;28;20061;-65
2022/03/27 01:26:23;;;;;;;16.45;7.63;;;;;;;1.40;67.53;98477.88;5027652;28;20056;-65
2022/03/27 01:28:51;;;;;;;20.83;7.88;;;;;;;1.36;68.25;98477.38;5027614;28;20072;-66
2022/03/27 01:31:18;;;;;;;17.48;8.07;;;;;;;1.37;68.00;98472.88;5026824;28;20045;-65
2022/03/27 01:33:45;;;;;;;15.98;7.07;;;;;;;1.33;67.80;98469.72;5026556;28;20038;-65
2022/03/27 01:36:19;;;;;;;17.65;7.85;;;;;;;1.39;67.43;98474.38;5028575;28;20120;-65
2022/03/27 01:38:45;;;;;;;15.70;7.70;;;;;;;1.25;68.13;98473.19;5034218;28;20053;-65
2022/03/27 01:41:12;;;;;;;22.58;8.85;;;;;;;1.10;68.97;98469.50;5025926;28;20073;-65
2022/03/27 01:43:38;;;;;;;21.83;8.38;;;;;;;1.05;69.07;98469.97;5016791;28;20044;-65
2022/03/27 01:46:05;;;;;;;22.13;8.10;;;;;;;1.05;68.72;98469.97;5024669;28;20041;-65
2022/03/27 01:48:32;;;;;;;23.15;8.05;;;;;;;1.07;68.98;98469.81;5036494;28;20037;-65
2022/03/27 01:50:59;;;;;;;21.23;7.85;;;;;;;1.12;68.65;98465.66;5025927;28;20045;-65
2022/03/27 01:53:26;;;;;;;16.83;7.85;;;;;;;1.06;69.03;98463.63;5044974;28;20048;-65
2022/03/27 01:55:53;;;;;;;26.80;8.77;;;;;;;1.04;69.05;98452.31;5027383;28;20050;-65
2022/03/27 01:58:20;;;;;;;18.63;7.60;;;;;;;1.14;68.63;98462.84;5042043;28;20037;-65
2022/03/27 02:00:47;;;;;;;21.27;7.72;;;;;;;1.01;69.31;98461.47;5026374;28;20041;-64
2022/03/27 02:03:14;;;;;;;15.63;8.05;;;;;;;1.02;68.96;98462.31;5026795;28;20049;-65
2022/03/27 02:05:41;;;;;;;20.67;8.07;;;;;;;1.03;68.90;98456.81;5021100;28;20041;-65
2022/03/27 02:08:09;;;;;;;21.60;7.57;;;;;;;1.03;68.96;98458.63;5026531;28;20033;-65
2022/03/27 02:10:55;;;;;;;19.05;7.70;;;;;;;1.01;68.63;98461.47;5026124;28;20536;-66
2022/03/27 02:13:22;;;;;;;16.90;7.07;;;;;;;0.94;69.03;98459.59;5026207;28;20050;-65
2022/03/27 02:15:50;;;;;;;26.33;9.18;;;;;;;0.84;69.99;98459.75;5026845;28;20088;-65
2022/03/27 02:18:17;;;;;;;21.20;8.65;;;;;;;0.85;69.62;98458.78;5026291;28;20496;-65
2022/03/27 02:20:44;;;;;;;28.35;8.82;;;;;;;0.93;69.61;98460.63;5024875;28;20045;-66
2022/03/27 02:23:12;;;;;;;18.27;8.70;;;;;;;0.88;69.77;98458.44;5026042;28;20049;-65
2022/03/27 02:25:39;;;;;;;17.92;8.10;;;;;;;1.00;69.36;98458.97;5023985;28;20108;-65
2022/03/27 02:28:07;;;;;;;18.60;8.20;;;;;;;0.96;69.69;98453.13;5027379;28;20045;-65
2022/03/27 02:30:34;;;;;;;21.35;8.07;;;;;;;0.95;69.54;98455.97;5025342;28;20098;-65
2022/03/27 02:33:01;;;;;;;21.10;8.23;;;;;;;1.00;69.73;98458.97;5020448;28;20263;-65
2022/03/27 02:35:28;;;;;;;23.23;8.68;;;;;;;1.01;69.57;98461.47;5025154;28;20049;-65
2022/03/27 02:37:55;;;;;;;21.35;9.45;;;;;;;0.87;70.24;98454.94;5024873;28;20045;-65
2022/03/27 02:40:21;;;;;;;22.77;9.38;;;;;;;0.72;70.27;98460.06;5024354;28;20451;-65
2022/03/27 02:42:48;;;;;;;24.02;8.45;;;;;;;0.57;71.09;98459.00;5042578;28;20495;-65
2022/03/27 02:45:15;;;;;;;20.73;8.55;;;;;;;0.42;71.69;98462.28;5034563;28;20056;-65
2022/03/27 02:47:42;;;;;;;16.80;8.85;;;;;;;0.38;71.94;98459.06;5025506;28;20517;-65
2022/03/27 02:50:10;;;;;;;27.13;9.23;;;;;;;0.36;72.20;98457.56;5026109;28;20742;-65
2022/03/27 02:52:37;;;;;;;23.30;8.77;;;;;;;0.42;71.72;98456.94;5021853;28;20045;-65
2022/03/27 02:55:04;;;;;;;17.58;7.85;;;;;;;0.35;72.01;98463.91;5026141;28;20057;-65
2022/03/27 02:57:30;;;;;;;18.63;9.05;;;;;;;0.38;71.86;98463.59;5023559;28;20501;-65
2022/03/27 02:59:57;;;;;;;17.42;7.05;;;;;;;0.42;71.93;98456.09;5027578;28;20083;-65
2022/03/27 03:02:23;;;;;;;22.90;8.30;;;;;;;0.54;71.94;98459.31;5021826;28;20041;-65
2022/03/27 03:04:51;;;;;;;24.73;9.35;;;;;;;0.59;71.63;98457.84;5025256;28;20053;-65
2022/03/27 03:07:18;;;;;;;23.67;9.25;;;;;;;0.66;71.52;98460.69;5025786;28;20472;-66
2022/03/27 03:09:45;;;;;;;18.45;7.60;;;;;;;0.67;71.38;98464.19;5025072;28;20034;-65
2022/03/27 03:12:11;;;;;;;26.58;9.73;;;;;;;0.68;71.31;98461.38;5025706;28;20045;-66
2022/03/27 03:14:38;;;;;;;19.13;8.88;;;;;;;0.80;70.74;98453.09;5025974;28;20386;-65
2022/03/27 03:17:07;;;;;;;21.05;9.38;;;;;;;0.77;71.13;98462.22;5024839;28;20045;-64
2022/03/27 03:19:34;;;;;;;17.52;7.38;;;;;;;0.80;70.87;98461.91;5025473;28;20041;-65
2022/03/27 03:22:01;;;;;;;20.15;7.95;;;;;;;0.83;71.13;98453.59;5026286;28;20041;-65
2022/03/27 03:24:28;;;;;;;17.23;8.43;;;;;;;0.86;70.58;98452.44;5034540;28;20044;-65
2022/03/27 03:26:54;;;;;;;19.10;9.07;;;;;;;0.87;70.78;98451.44;5026230;28;20049;-65
2022/03/27 03:29:22;;;;;;;20.17;8.15;;;;;;;0.92;70.74;98456.28;5025050;28;20037;-65
2022/03/27 03:31:49;;;;;;;20.05;8.15;;;;;;;0.85;70.69;98456.91;5024250;28;20497;-65
2022/03/27 03:34:16;;;;;;;16.17;8.52;;;;;;;0.81;71.34;98455.56;5026487;28;20083;-65
2022/03/27 03:36:43;;;;;;;28.80;10.50;;;;;;;0.74;71.62;98462.56;5025341;28;20052;-65
2022/03/27 03:39:10;;;;;;;22.10;8.25;;;;;;;0.47;72.72;98453.78;5024782;28;20757;-65
2022/03/27 03:41:37;;;;;;;20.05;9.75;;;;;;;0.38;72.88;98456.41;5025531;28;20053;-65
2022/03/27 03:44:21;;;;;;;19.23;6.75;;;;;;;0.37;73.33;98460.06;5023801;28;20053;-65
2022/03/27 03:46:48;;;;;;;20.23;9.07;;;;;;;0.43;73.11;98463.94;5023294;28;20037;-65
2022/03/27 03:49:15;;;;;;;20.25;8.57;;;;;;;0.58;73.06;98450.84;5026055;28;20048;-65
2022/03/27 03:51:42;;;;;;;21.50;9.85;;;;;;;0.51;72.76;98455.13;5029443;28;20511;-65
2022/03/27 03:54:09;;;;;;;19.85;9.73;;;;;;;0.47;72.95;98459.97;5027824;28;20071;-65
2022/03/27 03:56:38;;;;;;;20.02;9.95;;;;;;;0.55;73.32;98458.34;5028337;28;20492;-65
2022/03/27 03:59:05;;;;;;;22.95;9.32;;;;;;;0.64;72.73;98452.03;5027841;28;20053;-65
2022/03/27 04:01:51;;;;;;;24.48;9.15;;;;;;;0.70;72.33;98458.56;5018981;28;20045;-65
2022/03/27 04:04:18;;;;;;;23.85;9.43;;;;;;;0.74;72.15;98454.56;5024729;28;20115;-65
2022/03/27 04:06:45;;;;;;;23.98;8.57;;;;;;;0.56;72.72;98455.50;5025860;28;20099;-65
2022/03/27 04:09:11;;;;;;;22.05;9.20;;;;;;;0.46;73.71;98460.13;5024154;28;20042;-65
2022/03/27 04:11:38;;;;;;;18.13;8.73;;;;;;;0.32;73.72;98456.22;5024368;28;20045;-65
2022/03/27 04:14:04;;;;;;;21.17;8.30;;;;;;;0.40;73.70;98466.09;5029122;28;20049;-65
2022/03/27 04:16:31;;;;;;;22.77;8.35;;;;;;;0.34;73.74;98467.56;5024176;28;20101;-65
2022/03/27 04:18:58;;;;;;;21.73;10.00;;;;;;;0.43;73.57;98471.09;5025915;28;20055;-65
2022/03/27 04:21:24;;;;;;;19.17;8.00;;;;;;;0.45;73.47;98469.97;5006759;28;20060;-65
2022/03/27 04:23:51;;;;;;;18.05;9.00;;;;;;;0.50;73.30;98458.81;5021574;28;20041;-65
2022/03/27 04:26:17;;;;;;;22.27;9.63;;;;;;;0.54;73.23;98468.16;5024476;28;20068;-65
2022/03/27 04:28:45;;;;;;;20.50;9.40;;;;;;;0.49;73.38;98459.81;5024293;28;20033;-65
2022/03/27 04:31:12;;;;;;;20.88;8.73;;;;;;;0.45;73.77;98463.78;5024399;28;20079;-65
2022/03/27 04:33:38;;;;;;;23.52;9.63;;;;;;;0.30;73.69;98456.41;5022318;28;20440;-65
2022/03/27 04:36:05;;;;;;;24.63;9.73;;;;;;;0.35;73.79;98459.41;5023797;28;20681;-65
2022/03/27 04:38:32;;;;;;;22.98;9.50;;;;;;;0.44;73.54;98457.59;5022224;28;20045;-65
2022/03/27 04:40:59;;;;;;;27.63;11.05;;;;;;;0.46;73.29;98460.97;5028895;28;20057;-64
2022/03/27 04:43:27;;;;;;;24.70;10.45;;;;;;;0.30;73.87;98455.56;5034490;28;20413;-65
2022/03/27 04:45:53;;;;;;;21.08;8.93;;;;;;;0.17;74.88;98459.47;5027960;28;20057;-65
2022/03/27 04:48:20;;;;;;;21.02;10.23;;;;;;;0.14;75.17;98458.97;5028088;28;20720;-65
2022/03/27 04:50:48;;;;;;;21.35;8.88;;;;;;;0.10;74.73;98466.41;5028391;28;20041;-65
2022/03/27 04:53:14;;;;;;;20.25;9.32;;;;;;;0.25;73.92;98464.00;5032897;28;20673;-65
2022/03/27 04:55:41;;;;;;;33.53;12.25;;;;;;;0.12;74.55;98469.78;5022064;28;20056;-65
2022/03/27 04:58:09;;;;;;;21.45;9.80;;;;;;;0.09;75.20;98475.41;5024676;28;20046;-64
2022/03/27 05:00:37;;;;;;;22.02;9.63;;;;;;;0.09;75.21;98478.06;5025209;28;20047;-65
2022/03/27 05:03:05;;;;;;;23.45;10.45;;;;;;;0.13;74.64;98468.78;5026475;28;20073;-64
2022/03/27 05:05:32;;;;;;;25.38;10.15;;;;;;;0.03;75.25;98471.53;5026529;28;20056;-64
2022/03/27 05:08:00;;;;;;;22.33;10.13;;;;;;;0.02;75.00;98483.19;5022633;28;20680;-65
2022/03/27 05:10:26;;;;;;;23.70;9.98;;;;;;;-0.01;74.99;98478.16;5029451;28;20052;-64
2022/03/27 05:12:53;;;;;;;21.52;10.40;;;;;;;-0.11;75.16;98483.59;5020550;28;20037;-65
2022/03/27 05:15:19;;;;;;;21.27;9.32;;;;;;;-0.27;76.09;98477.19;5025777;28;20053;-64
2022/03/27 05:17:55;;;;;;;18.45;9.10;;;;;;;-0.20;75.71;98479.22;5030201;28;20046;-65
2022/03/27 05:20:23;;;;;;;26.67;10.38;;;;;;;-0.26;76.25;98472.66;5023887;28;20108;-65
2022/03/27 05:22:50;;;;;;;23.02;9.45;;;;;;;-0.11;75.30;98480.94;5024849;28;20075;-65
2022/03/27 05:25:18;;;;;;;27.27;11.18;;;;;;;-0.04;75.79;98476.66;5025813;28;20455;-65
2022/03/27 05:27:57;;;;;;;24.35;9.40;;;;;;;-0.18;76.00;98477.25;5014189;28;20045;-65
2022/03/27 05:30:26;;;;;;;19.70;8.43;;;;;;;-0.20;75.67;98480.06;5023353;28;20052;-65
2022/03/27 05:32:53;;;;;;;20.90;8.50;;;;;;;-0.12;75.96;98478.44;5024383;28;20056;-65
2022/03/27 05:35:21;;;;;;;28.13;10.68;;;;;;;-0.17;75.80;98479.75;5025709;28;20069;-65
2022/03/27 05:37:49;;;;;;;20.52;9.85;;;;;;;-0.11;76.19;98480.13;5024002;28;20044;-66
2022/03/27 05:40:18;;;;;;;25.17;10.52;;;;;;;-0.11;75.76;98480.13;5030102;28;20472;-66
2022/03/27 05:42:46;;;;;;;22.88;10.63;;;;;;;-0.02;75.77;98476.50;5028129;28;20045;-66
2022/03/27 05:45:13;;;;;;;26.23;10.85;;;;;;;-0.05;75.49;98487.47;5024129;28;20436;-66
2022/03/27 05:47:43;;;;;;;27.35;9.02;;;;;;;0.02;74.87;98487.69;5024334;28;20041;-66
2022/03/27 05:50:11;;;;;;;16.80;7.72;;;;;;;0.07;75.15;98488.88;5024778;28;20100;-66
2022/03/27 05:52:41;;;;;;;22.33;9.10;;;;;;;0.09;75.57;98491.38;5027254;28;20668;-66
2022/03/27 05:55:09;;;;;;;19.52;9.45;;;;;;;0.14;75.33;98497.06;5026847;28;20499;-66
2022/03/27 05:57:35;;;;;;;23.42;9.00;;;;;;;0.25;75.06;98496.81;5025162;28;20056;-67
2022/03/27 06:00:04;;;;;;;22.40;9.98;;;;;;;0.25;74.83;98501.31;5026860;28;20057;-66
2022/03/27 06:02:34;;;;;;;26.13;10.00;;;;;;;0.32;75.05;98501.50;5025098;28;20060;-66
2022/03/27 06:05:02;;;;;;;23.27;10.20;;;;;;;0.42;74.90;98494.25;5023939;28;20053;-65
2022/03/27 06:07:28;;;;;;;20.17;9.30;;;;;;;0.52;74.83;98500.28;5017039;28;20112;-66
2022/03/27 06:09:55;;;;;;;26.45;10.63;;;;;;;0.49;74.57;98500.63;5026565;28;20041;-66
2022/03/27 06:12:22;;;;;;;26.83;11.65;;;;;;;0.49;74.95;98497.13;5020870;28;20049;-66
2022/03/27 06:14:49;;;;;;;20.30;8.70;;;;;;;0.50;74.65;98501.44;5026638;28;20049;-66
2022/03/27 06:17:16;;;;;;;22.02;9.13;;;;;;;0.52;74.75;98502.13;5026070;28;20777;-66
2022/03/27 06:19:42;;;;;;;21.25;9.40;;;;;;;0.63;74.86;98503.69;5022351;28;20036;-66
2022/03/27 06:22:09;;;;;;;19.60;9.85;;;;;;;0.67;74.32;98504.19;5024077;28;20100;-66
2022/03/27 06:24:36;;;;;;;22.90;10.55;;;;;;;0.78;74.56;98507.41;5037427;28;20064;-66
2022/03/27 06:27:02;;;;;;;24.15;10.27;;;;;;;0.99;74.34;98510.66;5024294;28;20049;-66
2022/03/27 06:29:29;;;;;;;16.75;8.30;;;;;;;1.15;74.75;98505.34;5022959;28;20041;-66
2022/03/27 06:31:55;;;;;;;18.85;10.00;;;;;;;1.35;74.43;98507.72;5023655;28;20044;-66
2022/03/27 06:34:22;;;;;;;21.95;9.65;;;;;;;1.60;73.57;98505.09;5023997;28;20048;-66
2022/03/27 06:36:49;;;;;;;24.02;10.48;;;;;;;1.78;73.70;98502.28;5023374;28;20037;-66
2022/03/27 06:39:15;;;;;;;23.92;9.77;;;;;;;2.02;73.31;98510.41;5024686;28;20056;-66
2022/03/27 06:41:42;;;;;;;21.42;10.20;;;;;;;2.21;72.33;98509.22;5025712;28;20095;-66
2022/03/27 06:44:09;;;;;;;24.23;10.52;;;;;;;2.33;71.96;98505.19;5026795;28;20045;-66
2022/03/27 06:46:35;;;;;;;25.33;11.00;;;;;;;2.41;72.34;98508.84;5027806;28;20048;-66
2022/03/27 06:49:02;;;;;;;24.58;9.98;;;;;;;2.50;71.88;98499.78;5025257;28;20038;-66
2022/03/27 06:51:29;;;;;;;24.90;10.02;;;;;;;2.67;71.78;98500.59;5026141;28;20056;-66
2022/03/27 06:53:55;;;;;;;19.27;9.10;;;;;;;2.91;70.71;98498.00;5026190;28;20528;-65
2022/03/27 06:56:22;;;;;;;29.27;11.65;;;;;;;3.17;70.67;98503.00;5021366;28;20713;-66
2022/03/27 06:58:49;;;;;;;22.38;10.60;;;;;;;3.41;70.06;98503.88;5025032;28;20041;-66
2022/03/27 07:04:01;;;;;;;21.60;10.57;;;;;;;3.84;69.30;98502.56;5023454;28;20095;-67
2022/03/27 07:06:27;;;;;;;22.48;10.38;;;;;;;4.08;68.41;98503.34;5022856;28;20049;-65
2022/03/27 07:08:54;;;;;;;23.00;11.43;;;;;;;4.40;68.25;98504.91;5022893;28;20465;-66
2022/03/27 07:11:21;;;;;;;25.55;11.10;;;;;;;4.58;67.70;98505.53;5023255;28;20041;-67
2022/03/27 07:13:48;;;;;;;20.38;9.77;;;;;;;4.73;67.48;98498.34;5022767;28;20060;-67
2022/03/27 07:16:16;;;;;;;22.05;11.93;;;;;;;5.16;66.19;98497.59;5023354;28;20484;-64
2022/03/27 07:18:43;;;;;;;24.58;10.48;;;;;;;5.44;66.98;98498.72;5019534;28;20049;-64
2022/03/27 07:21:09;;;;;;;22.02;11.52;;;;;;;5.64;66.32;98492.72;5022864;28;20123;-68
2022/03/27 07:23:35;;;;;;;20.73;9.85;;;;;;;5.89;65.72;98495.03;5023239;28;20625;-65
2022/03/27 07:26:02;;;;;;;23.17;10.13;;;;;;;5.86;64.97;98499.75;5023879;28;20057;-66
2022/03/27 07:28:31;;;;;;;20.52;10.23;;;;;;;5.83;64.73;98496.63;5021059;28;20045;-65
2022/03/27 07:31:02;;;;;;;17.90;9.45;;;;;;;5.91;64.30;98501.88;5023454;28;20405;-66
2022/03/27 07:33:29;;;;;;;25.70;10.18;;;;;;;6.03;63.91;98502.19;5023766;28;20735;-66
2022/03/27 07:35:56;;;;;;;22.30;9.88;;;;;;;6.19;63.54;98500.25;5022622;28;20464;-66
2022/03/27 07:38:22;;;;;;;17.83;8.85;;;;;;;6.63;61.28;98511.69;5030636;28;20052;-66
2022/03/27 07:40:49;;;;;;;18.80;9.52;;;;;;;7.35;58.47;98505.19;5037196;28;20048;-66
2022/03/27 07:43:15;;;;;;;19.52;9.35;;;;;;;7.74;57.04;98514.38;5022537;28;20471;-67
2022/03/27 07:45:42;;;;;;;23.05;8.95;;;;;;;8.10;55.93;98506.94;5023379;28;20718;-66
2022/03/27 07:48:09;;;;;;;17.50;9.48;;;;;;;8.24;55.97;98507.78;5015872;28;20049;-67
2022/03/27 07:50:36;;;;;;;24.15;10.10;;;;;;;8.49;55.22;98503.59;5021259;28;20038;-66
2022/03/27 07:53:05;;;;;;;20.45;8.95;;;;;;;8.64;53.77;98511.47;5017692;28;20057;-66
2022/03/27 07:55:32;;;;;;;21.92;9.15;;;;;;;8.79;53.72;98506.69;5019595;28;20042;-67
2022/03/27 07:57:59;;;;;;;20.75;9.35;;;;;;;8.90;53.13;98512.44;5024184;28;20041;-67
2022/03/27 08:00:27;;;;;;;22.02;9.05;;;;;;;8.93;52.53;98502.06;5035562;28;20090;-67
2022/03/27 08:02:54;;;;;;;20.77;9.65;;;;;;;8.90;52.99;98509.75;5019273;28;20064;-66
2022/03/27 08:05:21;;;;;;;23.08;10.07;;;;;;;8.94;53.13;98503.72;5023537;28;20053;-67
2022/03/27 08:07:49;;;;;;;24.48;11.13;;;;;;;8.96;52.70;98506.22;5024840;28;20052;-66
2022/03/27 08:10:15;;;;;;;29.52;10.82;;;;;;;9.00;52.85;98506.59;5014833;28;20152;-67
2022/03/27 08:12:43;;;;;;;22.85;10.00;;;;;;;9.02;52.83;98518.00;5015600;28;20123;-66
2022/03/27 08:15:10;;;;;;;24.38;11.27;;;;;;;9.12;52.48;98504.91;5026984;28;20121;-66
2022/03/27 08:17:37;;;;;;;16.67;9.02;;;;;;;9.14;52.63;98515.50;5028966;28;20064;-66
2022/03/27 08:20:05;;;;;;;18.95;10.32;;;;;;;9.09;52.53;98521.53;5034055;28;20108;-66
2022/03/27 08:22:33;;;;;;;19.52;9.63;;;;;;;9.13;52.79;98516.53;5023093;28;20061;-66
2022/03/27 08:25:00;;;;;;;21.15;11.13;;;;;;;9.09;52.55;98516.13;5027911;28;20049;-66
2022/03/27 08:27:27;;;;;;;19.27;9.13;;;;;;;9.23;52.66;98519.59;5022581;28;20495;-66
2022/03/27 08:29:54;;;;;;;21.70;10.45;;;;;;;9.33;52.19;98519.97;5021566;28;20041;-66
2022/03/27 08:32:20;;;;;;;21.42;9.77;;;;;;;9.40;51.93;98522.63;5029184;28;20052;-66
2022/03/27 08:34:48;;;;;;;20.35;9.88;;;;;;;9.53;52.59;98520.91;5028020;28;20041;-66
2022/03/27 08:37:16;;;;;;;18.65;9.13;;;;;;;9.62;51.79;98520.44;5028252;28;20060;-66
2022/03/27 08:39:45;;;;;;;18.90;9.20;;;;;;;9.78;51.41;98520.97;5033345;28;20045;-66
2022/03/27 08:42:17;;;;;;;21.08;9.27;;;;;;;9.84;51.05;98521.97;5024998;28;20065;-66
2022/03/27 08:44:44;;;;;;;24.73;9.77;;;;;;;9.84;51.77;98520.09;5027766;28;20045;-67
2022/03/27 08:47:22;;;;;;;26.05;10.18;;;;;;;9.94;50.34;98525.00;5028591;28;20054;-66
2022/03/27 08:49:53;;;;;;;19.02;10.13;;;;;;;10.02;50.71;98527.44;5038276;28;20583;-66
2022/03/27 08:52:21;;;;;;;23.88;9.50;;;;;;;10.04;50.92;98526.41;5031162;28;20058;-66
2022/03/27 08:55:20;;;;;;;20.63;8.45;;;;;;;10.12;50.35;98531.53;5025644;28;20578;-66
2022/03/27 08:57:54;;;;;;;17.45;8.60;;;;;;;10.20;50.39;98525.00;5029165;28;20034;-69
2022/03/27 09:00:24;;;;;;;18.50;9.00;;;;;;;10.34;50.23;98528.44;5026684;28;20087;-67
2022/03/27 09:02:55;;;;;;;23.05;10.77;;;;;;;10.43;49.21;98532.53;5027620;28;20048;-67
2022/03/27 09:05:22;;;;;;;14.63;8.50;;;;;;;10.46;48.55;98528.59;5043399;28;20072;-67
2022/03/27 09:07:49;;;;;;;18.30;9.57;;;;;;;10.41;48.95;98530.06;5026419;28;20048;-68
2022/03/27 09:10:17;;;;;;;16.90;8.40;;;;;;;10.38;49.17;98529.66;5027371;28;20052;-69
2022/03/27 09:12:45;;;;;;;19.27;9.18;;;;;;;10.56;49.47;98528.91;5027472;28;20087;-70
2022/03/27 09:15:19;;;;;;;18.10;9.13;;;;;;;10.59;49.63;98530.34;5029335;28;20045;-69
2022/03/27 09:18:00;;;;;;;20.08;9.05;;;;;;;10.73;49.05;98533.75;5036582;28;20041;-66
2022/03/27 09:20:53;;;;;;;16.23;8.27;;;;;;;10.69;48.46;98532.53;5028586;28;20048;-66
2022/03/27 09:23:25;;;;;;;15.95;8.35;;;;;;;10.78;48.74;98531.19;5027836;28;20064;-64
2022/03/27 09:26:04;;;;;;;19.70;9.10;;;;;;;10.84;48.78;98530.28;5024138;28;20053;-67
2022/03/27 09:28:39;;;;;;;21.48;9.80;;;;;;;10.95;47.65;98527.88;5025236;28;20056;-66
2022/03/27 09:31:16;;;;;;;18.17;8.82;;;;;;;11.08;48.27;98525.00;5023232;28;20045;-67
2022/03/27 09:33:47;;;;;;;16.15;8.95;;;;;;;11.26;47.87;98516.03;5024134;28;20057;-68
2022/03/27 09:36:21;;;;;;;16.52;8.73;;;;;;;11.41;46.98;98525.66;5025247;28;20050;-67
2022/03/27 09:39:13;;;;;;;23.00;10.95;;;;;;;11.47;46.79;98516.63;5024471;28;20041;-66
2022/03/27 09:41:42;;;;;;;20.05;8.90;;;;;;;11.51;46.56;98519.69;5024825;28;20041;-66
2022/03/27 09:44:16;;;;;;;20.77;8.77;;;;;;;11.56;46.53;98517.09;5024977;28;20064;-66
2022/03/27 09:47:00;;;;;;;19.52;9.30;;;;;;;11.66;46.03;98511.13;5024827;28;20049;-65
2022/03/27 09:49:36;;;;;;;18.63;8.73;;;;;;;11.86;46.10;98515.44;5022656;28;20037;-66
2022/03/27 09:52:08;;;;;;;21.75;9.60;;;;;;;12.05;45.47;98511.59;5031478;28;20489;-66
2022/03/27 09:54:51;;;;;;;18.00;9.25;;;;;;;12.19;45.15;98508.66;5025937;28;20050;-65
2022/03/27 09:57:26;;;;;;;18.75;9.00;;;;;;;12.29;44.83;98510.81;5031714;28;20056;-65
2022/03/27 09:59:55;;;;;;;21.40;10.02;;;;;;;12.48;44.17;98503.38;5023772;28;20042;-66
2022/03/27 10:02:26;;;;;;;20.70;10.00;;;;;;;12.59;43.58;98499.84;5024292;28;20693;-65
2022/03/27 10:04:59;;;;;;;17.35;9.48;;;;;;;12.57;43.21;98498.41;5036367;28;20662;-65
2022/03/27 10:07:27;;;;;;;22.92;10.75;;;;;;;12.58;43.64;98500.91;5034277;28;20537;-65
2022/03/27 10:09:54;;;;;;;17.13;9.45;;;;;;;12.67;44.03;98508.66;5024692;28;20052;-65
2022/03/27 10:12:26;;;;;;;22.25;10.93;;;;;;;12.80;43.92;98508.44;5026692;28;20655;-65
2022/03/27 10:14:59;;;;;;;22.20;10.10;;;;;;;12.84;43.41;98498.75;5023551;28;20052;-65
2022/03/27 10:17:27;;;;;;;20.38;9.85;;;;;;;12.90;43.12;98496.13;5023732;28;20057;-65
2022/03/27 10:19:59;;;;;;;19.67;10.93;;;;;;;13.11;43.06;98498.19;5023676;28;20052;-66
2022/03/27 10:22:28;;;;;;;19.95;9.82;;;;;;;13.19;42.80;98486.13;5024563;28;20508;-65
2022/03/27 10:25:00;;;;;;;20.20;9.93;;;;;;;13.27;42.64;98491.16;5023608;28;20038;-65
2022/03/27 10:27:28;;;;;;;;;;;;;;;13.44;42.56;98492.28;5024484;28;20113;-67
2022/03/27 10:29:55;;;;;;;22.98;10.73;;;;;;;13.53;42.22;98483.53;5031657;28;19931;-66
2022/03/27 10:32:22;;;;;;;20.35;10.95;;;;;;;13.53;41.56;98483.53;5026385;28;20046;-66
2022/03/27 10:35:04;;;;;;;22.20;9.65;;;;;;;13.50;42.78;98475.03;5024037;28;20750;-66
2022/03/27 10:37:42;;;;;;;19.67;10.20;;;;;;;13.55;42.30;98471.56;5018682;28;20045;-66
2022/03/27 10:40:19;;;;;;;23.15;11.18;;;;;;;13.77;41.74;98471.69;5029883;28;20037;-67
2022/03/27 10:42:54;;;;;;;25.42;9.70;;;;;;;13.71;40.98;98470.78;5025209;28;20041;-66
2022/03/27 10:45:21;;;;;;;22.10;10.48;;;;;;;13.66;41.22;98467.97;5027950;28;20053;-66
2022/03/27 10:48:10;;;;;;;18.05;9.85;;;;;;;13.80;40.44;98465.75;5027718;28;20036;-67
2022/03/27 10:50:54;;;;;;;19.95;10.52;;;;;;;13.98;40.26;98463.88;5019917;28;20480;-67
2022/03/27 10:53:23;;;;;;;22.00;9.68;;;;;;;14.05;39.72;98464.53;5034311;28;20056;-66
2022/03/27 10:55:52;;;;;;;18.92;10.52;;;;;;;14.21;39.04;98467.47;5027300;28;20054;-66
2022/03/27 10:58:34;;;;;;;18.50;9.25;;;;;;;14.23;39.20;98468.06;5027399;28;20699;-66
2022/03/27 11:01:04;;;;;;;23.88;9.48;;;;;;;14.28;39.57;98462.69;5024894;28;20042;-67
2022/03/27 11:04:08;;;;;;;20.08;9.93;;;;;;;14.38;38.49;98462.03;5026741;28;20048;-66
2022/03/27 11:06:37;;;;;;;18.05;9.35;;;;;;;14.46;38.81;98469.78;5022665;28;20045;-66
2022/03/27 11:09:07;;;;;;;17.45;9.00;;;;;;;14.39;38.93;98463.69;5033586;28;20556;-67
2022/03/27 11:11:33;;;;;;;19.52;9.10;;;;;;;14.51;38.10;98460.84;5027873;28;20045;-66
2022/03/27 11:14:00;;;;;;;21.45;10.23;;;;;;;14.48;38.53;98455.91;5027042;28;20053;-66
2022/03/27 11:16:27;;;;;;;16.85;8.73;;;;;;;14.52;38.75;98460.59;5023694;28;20072;-66
2022/03/27 11:18:54;;;;;;;18.60;9.63;;;;;;;14.65;38.46;98448.50;5026179;28;20107;-66
2022/03/27 11:21:26;;;;;;;17.23;8.82;;;;;;;14.80;38.14;98455.25;5023870;28;20034;-66
2022/03/27 11:23:55;;;;;;;18.15;8.98;;;;;;;14.94;37.16;98448.38;5025280;28;20048;-66
2022/03/27 11:26:21;;;;;;;18.17;9.55;;;;;;;15.01;35.97;98453.63;5025182;28;20092;-66
2022/03/27 11:28:50;;;;;;;21.20;10.40;;;;;;;14.76;36.41;98444.03;5025722;28;20404;-66
2022/03/27 11:31:30;;;;;;;21.55;9.38;;;;;;;14.88;37.40;98441.19;5024022;28;20042;-66
2022/03/27 11:34:11;;;;;;;21.17;8.95;;;;;;;15.02;36.20;98441.63;5026625;28;20059;-66
2022/03/27 11:37:09;;;;;;;16.52;9.07;;;;;;;15.08;35.25;98437.06;5024267;28;20045;-66
2022/03/27 11:39:37;;;;;;;16.83;8.73;;;;;;;15.10;35.51;98437.63;5025570;28;20419;-66
2022/03/27 11:42:25;;;;;;;15.52;8.50;;;;;;;15.13;34.77;98431.66;5023527;28;20673;-66
2022/03/27 11:45:21;;;;;;;20.67;9.13;;;;;;;15.33;35.17;98432.94;5025724;28;20053;-66